createdAt,value
2023-03-12T00:00:54.189Z,97793.78
2023-03-12T00:03:34.312Z,97803.31
2023-03-12T00:06:10.196Z,97808.50
2023-03-12T00:08:38.248Z,97824.00
2023-03-12T00:11:13.304Z,97817.06
2023-03-12T00:13:42.516Z,97819.59
2023-03-12T00:16:12.997Z,97824.75
2023-03-12T00:18:41.255Z,97817.00
2023-03-12T00:21:08.810Z,97828.22
2023-03-12T00:23:36.213Z,97822.25
2023-03-12T00:26:06.222Z,97826.63
2023-03-12T00:28:35.108Z,97818.84
2023-03-12T00:31:03.971Z,97818.94
2023-03-12T00:33:31.126Z,97823.28
2023-03-12T00:36:01.019Z,97826.78
2023-03-12T00:38:28.226Z,97832.75
2023-03-12T00:40:55.092Z,97827.63
2023-03-12T00:43:22.403Z,97830.16
2023-03-12T00:45:49.347Z,97826.72
2023-03-12T00:48:16.533Z,97821.53
2023-03-12T00:50:43.401Z,97817.25
2023-03-12T00:53:10.536Z,97820.75
2023-03-12T00:55:37.393Z,97831.06
2023-03-12T00:58:04.538Z,97819.88
2023-03-12T01:00:31.910Z,97821.63
2023-03-12T01:02:59.161Z,97834.56
2023-03-12T01:05:26.198Z,97825.97
2023-03-12T01:07:53.768Z,97828.63
2023-03-12T01:10:22.174Z,97835.56
2023-03-12T01:12:49.397Z,97837.34
2023-03-12T01:15:17.767Z,97841.66
2023-03-12T01:17:44.989Z,97836.59
2023-03-12T01:20:12.592Z,97839.09
2023-03-12T01:22:40.224Z,97843.34
2023-03-12T01:25:07.567Z,97839.06
2023-03-12T01:27:34.816Z,97851.09
2023-03-12T01:30:02.072Z,97846.78
2023-03-12T01:32:29.365Z,97846.00
2023-03-12T01:34:58.362Z,97843.50
2023-03-12T01:37:25.729Z,97849.50
2023-03-12T01:39:52.678Z,97853.03
2023-03-12T01:42:20.006Z,97859.06
2023-03-12T01:44:52.686Z,97854.72
2023-03-12T01:47:20.910Z,97856.47
2023-03-12T01:49:50.082Z,97856.38
2023-03-12T01:52:22.803Z,97858.94
2023-03-12T01:54:53.039Z,97857.19
2023-03-12T01:57:24.792Z,97867.47
2023-03-12T01:59:59.976Z,97878.66
2023-03-12T02:02:29.984Z,97879.50
2023-03-12T02:05:11.657Z,97883.84
2023-03-12T02:07:38.953Z,97891.63
2023-03-12T02:10:06.198Z,97891.69
2023-03-12T02:12:33.394Z,97892.59
2023-03-12T02:15:00.383Z,97890.88
2023-03-12T02:17:27.679Z,97903.06
2023-03-12T02:20:09.265Z,97897.03
2023-03-12T02:22:37.908Z,97908.22
2023-03-12T02:25:31.075Z,97899.56
2023-03-12T02:28:00.591Z,97906.47
2023-03-12T02:30:30.711Z,97916.81
2023-03-12T02:33:01.721Z,97911.63
2023-03-12T02:35:28.670Z,97922.94
2023-03-12T02:37:57.158Z,97930.75
2023-03-12T02:40:31.776Z,97920.56
2023-03-12T02:42:59.353Z,97933.50
2023-03-12T02:45:26.825Z,97932.63
2023-03-12T02:47:53.977Z,97933.44
2023-03-12T02:50:21.320Z,97928.28
2023-03-12T02:52:48.522Z,97942.13
2023-03-12T02:55:15.423Z,97943.06
2023-03-12T02:57:43.878Z,97938.84
2023-03-12T03:00:15.061Z,97932.88
2023-03-12T03:02:43.538Z,97946.72
2023-03-12T03:05:11.813Z,97961.41
2023-03-12T03:07:39.290Z,97958.94
2023-03-12T03:10:07.285Z,97969.38
2023-03-12T03:12:36.665Z,97969.44
2023-03-12T03:15:04.449Z,97980.69
2023-03-12T03:17:31.626Z,97985.06
2023-03-12T03:19:58.494Z,97989.47
2023-03-12T03:22:25.664Z,97998.13
2023-03-12T03:24:53.766Z,97999.03
2023-03-12T03:27:21.210Z,98003.34
2023-03-12T03:32:15.380Z,98006.81
2023-03-12T03:34:42.430Z,98007.69
2023-03-12T03:37:10.027Z,98009.41
2023-03-12T03:39:36.943Z,98014.59
2023-03-12T03:42:04.268Z,98033.53
2023-03-12T03:44:31.416Z,98030.09
2023-03-12T03:46:58.969Z,98030.22
2023-03-12T03:49:25.873Z,98036.22
2023-03-12T03:51:53.018Z,98036.22
2023-03-12T03:54:20.196Z,98029.38
2023-03-12T03:56:47.736Z,98032.78
2023-03-12T03:59:14.725Z,98024.19
2023-03-12T04:01:41.919Z,98035.38
2023-03-12T04:04:08.902Z,98035.38
2023-03-12T04:06:36.644Z,98038.88
2023-03-12T04:09:04.131Z,98038.00
2023-03-12T04:11:31.432Z,98036.31
2023-03-12T04:13:58.599Z,98044.97
2023-03-12T04:16:26.322Z,98042.41
2023-03-12T04:18:53.269Z,98046.72
2023-03-12T04:21:20.577Z,98046.69
2023-03-12T04:23:47.522Z,98051.00
2023-03-12T04:26:14.916Z,98050.91
2023-03-12T04:28:41.852Z,98039.66
2023-03-12T04:31:11.626Z,98046.56
2023-03-12T04:33:39.958Z,98062.97
2023-03-12T04:36:08.097Z,98050.09
2023-03-12T04:38:35.147Z,98048.34
2023-03-12T04:41:07.446Z,98056.16
2023-03-12T04:43:35.093Z,98053.63
2023-03-12T04:46:03.044Z,98059.59
2023-03-12T04:48:30.340Z,98069.06
2023-03-12T04:50:57.555Z,98063.06
2023-03-12T04:53:25.049Z,98066.50
2023-03-12T04:55:52.861Z,98067.38
2023-03-12T04:58:21.357Z,98068.19
2023-03-12T05:00:49.654Z,98079.38
2023-03-12T05:03:17.601Z,98075.84
2023-03-12T05:05:45.086Z,98074.03
2023-03-12T05:08:11.991Z,98085.00
2023-03-12T05:10:39.399Z,98074.38
2023-03-12T05:13:17.449Z,98088.00
2023-03-12T05:15:45.041Z,98089.66
2023-03-12T05:18:11.939Z,98102.66
2023-03-12T05:20:39.849Z,98102.66
2023-03-12T05:23:06.755Z,98112.16
2023-03-12T05:25:33.917Z,98108.66
2023-03-12T05:28:00.859Z,98112.13
2023-03-12T05:30:28.047Z,98106.75
2023-03-12T05:32:55.051Z,98107.31
2023-03-12T05:35:23.157Z,98117.34
2023-03-12T05:37:50.525Z,98107.19
2023-03-12T05:40:17.788Z,98108.28
2023-03-12T05:42:44.631Z,98114.59
2023-03-12T05:45:11.945Z,98114.78
2023-03-12T05:47:38.933Z,98107.94
2023-03-12T05:50:06.663Z,98114.78
2023-03-12T05:52:33.719Z,98117.44
2023-03-12T05:55:00.869Z,98113.53
2023-03-12T05:57:27.787Z,98133.78
2023-03-12T05:59:54.925Z,98139.19
2023-03-12T06:02:21.786Z,98135.84
2023-03-12T06:04:49.008Z,98132.25
2023-03-12T06:07:15.912Z,98144.50
2023-03-12T06:09:43.226Z,98142.75
2023-03-12T06:12:10.092Z,98145.28
2023-03-12T06:14:37.346Z,98144.75
2023-03-12T06:17:04.220Z,98125.06
2023-03-12T06:19:31.516Z,98138.88
2023-03-12T06:21:58.614Z,98149.19
2023-03-12T06:24:25.931Z,98143.09
2023-03-12T06:26:52.879Z,98144.28
2023-03-12T06:29:20.076Z,98152.19
2023-03-12T06:31:48.414Z,98150.59
2023-03-12T06:34:16.909Z,98154.47
2023-03-12T06:36:44.120Z,98159.13
2023-03-12T06:39:11.281Z,98162.50
2023-03-12T06:41:38.236Z,98155.47
2023-03-12T06:44:06.541Z,98163.16
2023-03-12T06:46:33.838Z,98162.94
2023-03-12T06:49:01.063Z,98160.13
2023-03-12T06:51:28.176Z,98138.44
2023-03-12T06:53:55.452Z,98159.31
2023-03-12T06:56:22.309Z,98172.59
2023-03-12T06:58:50.280Z,98169.50
2023-03-12T07:01:17.132Z,98165.66
2023-03-12T07:03:44.387Z,98171.19
2023-03-12T07:06:22.238Z,98174.34
2023-03-12T07:08:49.900Z,98165.81
2023-03-12T07:11:17.784Z,98187.78
2023-03-12T07:13:45.091Z,98181.03
2023-03-12T07:16:12.607Z,98166.63
2023-03-12T07:18:39.883Z,98174.22
2023-03-12T07:21:07.150Z,98175.56
2023-03-12T07:23:34.384Z,98188.75
2023-03-12T07:26:01.336Z,98184.13
2023-03-12T07:28:28.662Z,98182.66
2023-03-12T07:31:01.034Z,98175.06
2023-03-12T07:33:28.423Z,98189.28
2023-03-12T07:35:55.513Z,98203.34
2023-03-12T07:38:22.830Z,98198.25
2023-03-12T07:40:54.928Z,98182.22
2023-03-12T07:43:22.739Z,98211.19
2023-03-12T07:45:50.586Z,98215.03
2023-03-12T07:48:20.154Z,98225.06
2023-03-12T07:50:47.802Z,98222.47
2023-03-12T07:53:15.059Z,98227.88
2023-03-12T07:55:44.561Z,98225.91
2023-03-12T07:58:13.087Z,98226.44
2023-03-12T08:00:40.244Z,98211.13
2023-03-12T08:03:07.759Z,98225.41
2023-03-12T08:05:35.122Z,98223.13
2023-03-12T08:08:02.413Z,98225.00
2023-03-12T08:10:29.385Z,98229.16
2023-03-12T08:12:56.775Z,98233.28
2023-03-12T08:15:23.780Z,98229.41
2023-03-12T08:17:51.217Z,98215.41
2023-03-12T08:20:18.191Z,98216.88
2023-03-12T08:22:45.336Z,98198.88
2023-03-12T08:25:12.593Z,98196.72
2023-03-12T08:27:39.893Z,98216.06
2023-03-12T08:30:07.290Z,98202.66
2023-03-12T08:32:34.677Z,98204.44
2023-03-12T08:35:01.720Z,98213.25
2023-03-12T08:37:29.043Z,98199.19
2023-03-12T08:39:55.953Z,98213.56
2023-03-12T08:42:23.200Z,98211.09
2023-03-12T08:44:50.173Z,98216.41
2023-03-12T08:47:17.381Z,98209.56
2023-03-12T08:49:44.408Z,98182.72
2023-03-12T08:52:11.576Z,98204.06
2023-03-12T08:54:38.483Z,98217.13
2023-03-12T08:57:05.731Z,98214.50
2023-03-12T08:59:32.572Z,98213.69
2023-03-12T09:01:59.811Z,98223.13
2023-03-12T09:04:26.721Z,98216.66
2023-03-12T09:06:53.897Z,98197.81
2023-03-12T09:09:20.731Z,98208.75
2023-03-12T09:11:47.895Z,98221.72
2023-03-12T09:14:57.561Z,98231.34
2023-03-12T09:17:02.340Z,98220.16
2023-03-12T09:19:29.563Z,98217.59
2023-03-12T09:21:57.866Z,98229.09
2023-03-12T09:24:25.043Z,98224.63
2023-03-12T09:26:52.310Z,98236.84
2023-03-12T09:29:19.210Z,98228.84
2023-03-12T09:31:46.404Z,98231.78
2023-03-12T09:34:13.340Z,98225.38
2023-03-12T09:36:40.546Z,98222.63
2023-03-12T09:39:07.727Z,98218.63
2023-03-12T09:41:39.651Z,98227.97
2023-03-12T09:44:30.669Z,98234.06
2023-03-12T09:47:05.487Z,98231.91
2023-03-12T09:49:45.299Z,98240.28
2023-03-12T09:52:30.809Z,98242.91
2023-03-12T09:55:03.683Z,98245.53
2023-03-12T09:57:30.894Z,98233.13
2023-03-12T09:59:58.100Z,98233.78
2023-03-12T10:02:38.943Z,98234.44
2023-03-12T10:05:11.857Z,98232.91
2023-03-12T10:07:48.283Z,98233.38
2023-03-12T10:10:28.096Z,98236.25
2023-03-12T10:13:36.907Z,98243.16
2023-03-12T10:16:23.602Z,98240.19
2023-03-12T10:19:09.421Z,98228.97
2023-03-12T10:21:49.372Z,98239.56
2023-03-12T10:24:25.179Z,98239.47
2023-03-12T10:26:55.950Z,98237.16
2023-03-12T10:29:29.031Z,98235.66
2023-03-12T10:32:11.196Z,98227.75
2023-03-12T10:34:43.090Z,98238.78
2023-03-12T10:37:30.261Z,98225.28
2023-03-12T10:40:00.320Z,98221.88
2023-03-12T10:42:29.877Z,98228.56
2023-03-12T10:45:19.602Z,98230.59
2023-03-12T10:47:53.444Z,98226.72
2023-03-12T10:50:26.896Z,98234.16
2023-03-12T10:53:14.976Z,98226.97
2023-03-12T10:55:42.221Z,98235.88
2023-03-12T10:58:22.912Z,98217.84
2023-03-12T11:01:01.417Z,98232.91
2023-03-12T11:03:29.422Z,98226.38
2023-03-12T11:06:00.982Z,98239.91
2023-03-12T11:08:33.068Z,98237.97
2023-03-12T11:11:01.879Z,98233.59
2023-03-12T11:13:33.590Z,98230.78
2023-03-12T11:16:20.772Z,98220.50
2023-03-12T11:19:03.878Z,98237.19
2023-03-12T11:21:35.434Z,98243.28
2023-03-12T11:24:10.305Z,98236.94
2023-03-12T11:26:40.442Z,98243.03
2023-03-12T11:29:13.454Z,98244.78
2023-03-12T11:31:57.884Z,98262.34
2023-03-12T11:34:31.282Z,98246.25
2023-03-12T11:37:06.691Z,98239.63
2023-03-12T11:39:33.559Z,98242.66
2023-03-12T11:42:14.665Z,98243.78
2023-03-12T11:45:14.995Z,98252.13
2023-03-12T11:48:15.889Z,98241.03
2023-03-12T11:51:01.185Z,98249.44
2023-03-12T11:53:42.568Z,98260.44
2023-03-12T11:56:38.663Z,98268.47
2023-03-12T11:59:42.920Z,98247.16
2023-03-12T12:02:21.676Z,98257.56
2023-03-12T12:05:00.655Z,98256.94
2023-03-12T12:07:36.274Z,98264.31
2023-03-12T12:10:40.521Z,98271.50
2023-03-12T12:13:26.094Z,98268.63
2023-03-12T12:16:38.450Z,98254.56
2023-03-12T12:19:05.838Z,98269.75
2023-03-12T12:22:04.233Z,98254.31
2023-03-12T12:24:51.536Z,98249.59
2023-03-12T12:27:26.127Z,98255.56
2023-03-12T12:30:11.591Z,98258.75
2023-03-12T12:32:41.945Z,98254.81
2023-03-12T12:35:29.855Z,98259.91
2023-03-12T12:37:59.570Z,98268.31
2023-03-12T12:40:54.856Z,98265.09
2023-03-12T12:43:37.887Z,98284.84
2023-03-12T12:46:10.482Z,98268.31
2023-03-12T12:48:57.399Z,98293.69
2023-03-12T12:51:30.353Z,98287.47
2023-03-12T12:54:16.853Z,98286.84
2023-03-12T12:57:11.293Z,98279.38
2023-03-12T12:59:50.938Z,98303.00
2023-03-12T13:02:22.190Z,98291.31
2023-03-12T13:04:50.114Z,98302.31
2023-03-12T13:07:20.171Z,98299.88
2023-03-12T13:09:52.951Z,98307.31
2023-03-12T13:12:55.206Z,98301.91
2023-03-12T13:15:28.493Z,98310.72
2023-03-12T13:17:55.416Z,98305.75
2023-03-12T13:20:30.539Z,98301.88
2023-03-12T13:23:21.689Z,98298.91
2023-03-12T13:26:15.164Z,98293.69
2023-03-12T13:29:06.125Z,98309.09
2023-03-12T13:31:35.570Z,98303.56
2023-03-12T13:34:17.750Z,98300.69
2023-03-12T13:36:47.367Z,98306.84
2023-03-12T13:39:17.304Z,98307.66
2023-03-12T13:41:54.941Z,98314.81
2023-03-12T13:44:27.641Z,98311.88
2023-03-12T13:47:15.921Z,98312.50
2023-03-12T13:49:59.980Z,98315.22
2023-03-12T13:52:30.860Z,98314.22
2023-03-12T13:55:03.096Z,98322.59
2023-03-12T13:58:05.897Z,98324.44
2023-03-12T14:00:37.294Z,98309.72
2023-03-12T14:03:14.801Z,98325.13
2023-03-12T14:05:52.525Z,98321.00
2023-03-12T14:08:40.513Z,98323.53
2023-03-12T14:11:33.593Z,98323.78
2023-03-12T14:14:25.799Z,98321.88
2023-03-12T14:16:56.752Z,98330.13
2023-03-12T14:19:27.071Z,98326.81
2023-03-12T14:21:56.338Z,98329.72
2023-03-12T14:24:34.415Z,98330.81
2023-03-12T14:27:04.815Z,98332.94
2023-03-12T14:29:38.888Z,98342.75
2023-03-12T14:32:17.271Z,98341.75
2023-03-12T14:35:16.532Z,98336.00
2023-03-12T14:37:51.396Z,98336.50
2023-03-12T14:40:46.361Z,98332.25
2023-03-12T14:43:29.102Z,98343.84
2023-03-12T14:45:59.151Z,98331.06
2023-03-12T14:48:35.363Z,98341.59
2023-03-12T14:51:05.470Z,98345.13
2023-03-12T14:53:35.546Z,98339.22
2023-03-12T14:56:12.312Z,98347.09
2023-03-12T14:58:45.560Z,98356.75
2023-03-12T15:01:17.811Z,98351.56
2023-03-12T15:03:49.400Z,98347.75
2023-03-12T15:06:29.459Z,98362.91
2023-03-12T15:08:58.092Z,98354.25
2023-03-12T15:11:28.475Z,98356.91
2023-03-12T15:14:01.791Z,98351.81
2023-03-12T15:16:29.434Z,98364.88
2023-03-12T15:18:57.251Z,98358.84
2023-03-12T15:21:25.310Z,98357.28
2023-03-12T15:23:52.500Z,98367.03
2023-03-12T15:26:19.681Z,98365.31
2023-03-12T15:29:14.616Z,98372.34
2023-03-12T15:31:43.245Z,98378.34
2023-03-12T15:34:13.012Z,98370.72
2023-03-12T15:36:49.824Z,98365.63
2023-03-12T15:39:26.783Z,98388.47
2023-03-12T15:41:56.405Z,98382.66
2023-03-12T15:44:26.358Z,98387.84
2023-03-12T15:47:10.929Z,98392.50
2023-03-12T15:49:39.034Z,98399.53
2023-03-12T15:52:18.430Z,98395.41
2023-03-12T15:55:00.404Z,98410.53
2023-03-12T15:57:28.311Z,98420.34
2023-03-12T16:00:16.964Z,98426.66
2023-03-12T16:03:15.281Z,98431.94
2023-03-12T16:05:42.758Z,98438.06
2023-03-12T16:08:20.681Z,98436.44
2023-03-12T16:10:50.863Z,98442.81
2023-03-12T16:13:21.186Z,98452.50
2023-03-12T16:15:48.759Z,98453.50
2023-03-12T16:18:19.283Z,98446.78
2023-03-12T16:20:47.161Z,98453.84
2023-03-12T16:23:14.867Z,98452.28
2023-03-12T16:25:44.335Z,98450.81
2023-03-12T16:28:14.485Z,98450.13
2023-03-12T16:30:41.884Z,98461.47
2023-03-12T16:33:15.372Z,98459.78
2023-03-12T16:35:42.746Z,98458.13
2023-03-12T16:38:10.494Z,98461.69
2023-03-12T16:40:41.227Z,98467.06
2023-03-12T16:43:19.113Z,98466.28
2023-03-12T16:45:47.585Z,98478.50
2023-03-12T16:48:18.584Z,98472.53
2023-03-12T16:50:52.452Z,98476.13
2023-03-12T16:53:19.951Z,98485.84
2023-03-12T16:55:56.499Z,98483.41
2023-03-12T16:58:25.837Z,98493.06
2023-03-12T17:00:54.663Z,98492.34
2023-03-12T17:03:31.735Z,98497.81
2023-03-12T17:06:00.011Z,98502.31
2023-03-12T17:08:27.464Z,98500.69
2023-03-12T17:10:55.708Z,98501.56
2023-03-12T17:13:25.936Z,98504.25
2023-03-12T17:15:53.268Z,98498.22
2023-03-12T17:18:21.453Z,98497.47
2023-03-12T17:20:50.975Z,98511.53
2023-03-12T17:23:18.348Z,98510.88
2023-03-12T17:25:46.068Z,98507.50
2023-03-12T17:28:15.458Z,98517.06
2023-03-12T17:30:43.124Z,98509.41
2023-03-12T17:33:13.958Z,98514.72
2023-03-12T17:35:42.083Z,98513.13
2023-03-12T17:38:10.351Z,98510.69
2023-03-12T17:40:44.615Z,98520.38
2023-03-12T17:43:12.453Z,98522.25
2023-03-12T17:45:39.872Z,98521.56
2023-03-12T17:48:07.201Z,98521.66
2023-03-12T17:50:34.511Z,98524.41
2023-03-12T17:53:01.899Z,98527.19
2023-03-12T17:55:28.757Z,98531.50
2023-03-12T17:57:56.026Z,98531.44
2023-03-12T18:00:23.232Z,98533.19
2023-03-12T18:02:50.661Z,98540.16
2023-03-12T18:05:17.781Z,98532.53
2023-03-12T18:07:47.595Z,98529.03
2023-03-12T18:10:15.177Z,98528.25
2023-03-12T18:12:42.556Z,98535.28
2023-03-12T18:15:15.262Z,98532.78
2023-03-12T18:17:44.911Z,98536.28
2023-03-12T18:20:16.702Z,98526.78
2023-03-12T18:22:45.460Z,98535.50
2023-03-12T18:25:12.837Z,98535.50
2023-03-12T18:27:40.317Z,98524.31
2023-03-12T18:30:11.499Z,98526.94
2023-03-12T18:32:40.168Z,98531.28
2023-03-12T18:35:08.482Z,98526.19
2023-03-12T18:37:35.801Z,98532.31
2023-03-12T18:40:02.868Z,98538.47
2023-03-12T18:42:30.557Z,98545.53
2023-03-12T18:44:57.504Z,98544.72
2023-03-12T18:47:24.835Z,98554.38
2023-03-12T18:49:55.063Z,98549.34
2023-03-12T18:52:22.637Z,98557.28
2023-03-12T18:54:49.599Z,98562.69
2023-03-12T18:57:16.799Z,98565.47
2023-03-12T18:59:46.114Z,98555.19
2023-03-12T19:02:13.545Z,98554.56
2023-03-12T19:04:40.481Z,98546.81
2023-03-12T19:07:10.540Z,98552.97
2023-03-12T19:09:37.764Z,98561.78
2023-03-12T19:12:05.243Z,98554.97
2023-03-12T19:14:32.048Z,98563.84
2023-03-12T19:16:59.265Z,98564.97
2023-03-12T19:19:26.464Z,98565.06
2023-03-12T19:21:53.824Z,98561.75
2023-03-12T19:24:20.719Z,98567.94
2023-03-12T19:26:47.919Z,98567.28
2023-03-12T19:29:16.547Z,98561.41
2023-03-12T19:31:44.009Z,98573.59
2023-03-12T19:34:10.956Z,98575.44
2023-03-12T19:36:38.223Z,98579.00
2023-03-12T19:39:15.232Z,98579.06
2023-03-12T19:41:47.663Z,98574.03
2023-03-12T19:44:14.560Z,98582.72
2023-03-12T19:46:43.337Z,98582.88
2023-03-12T19:49:10.470Z,98582.09
2023-03-12T19:51:40.233Z,98584.72
2023-03-12T19:54:07.759Z,98585.66
2023-03-12T19:56:35.014Z,98592.59
2023-03-12T19:59:01.932Z,98593.47
2023-03-12T20:01:29.129Z,98589.19
2023-03-12T20:03:55.965Z,98585.81
2023-03-12T20:06:23.222Z,98595.41
2023-03-12T20:08:50.218Z,98592.81
2023-03-12T20:11:17.456Z,98598.00
2023-03-12T20:13:45.443Z,98603.22
2023-03-12T20:16:14.060Z,98601.50
2023-03-12T20:18:41.075Z,98598.06
2023-03-12T20:21:08.491Z,98598.97
2023-03-12T20:23:35.532Z,98595.50
2023-03-12T20:26:03.175Z,98586.06
2023-03-12T20:28:30.152Z,98587.81
2023-03-12T20:30:57.516Z,98576.59
2023-03-12T20:33:24.489Z,98578.34
2023-03-12T20:35:51.834Z,98568.88
2023-03-12T20:38:18.778Z,98561.94
2023-03-12T20:40:46.581Z,98568.91
2023-03-12T20:43:13.546Z,98573.22
2023-03-12T20:45:40.936Z,98565.50
2023-03-12T20:48:08.170Z,98570.63
2023-03-12T20:50:37.861Z,98568.91
2023-03-12T20:53:04.755Z,98574.94
2023-03-12T20:55:31.993Z,98568.91
2023-03-12T20:57:59.635Z,98566.28
2023-03-12T21:00:26.955Z,98555.88
2023-03-12T21:02:53.855Z,98551.53
2023-03-12T21:05:23.908Z,98552.41
2023-03-12T21:07:53.011Z,98561.03
2023-03-12T21:10:21.096Z,98560.13
2023-03-12T21:12:47.957Z,98560.97
2023-03-12T21:15:15.392Z,98558.34
2023-03-12T21:17:42.510Z,98561.75
2023-03-12T21:20:13.600Z,98564.34
2023-03-12T21:22:43.371Z,98556.53
2023-03-12T21:25:11.892Z,98559.97
2023-03-12T21:27:49.844Z,98560.81
2023-03-12T21:30:18.418Z,98564.22
2023-03-12T21:32:45.466Z,98558.94
2023-03-12T21:35:12.727Z,98559.75
2023-03-12T21:37:40.007Z,98561.44
2023-03-12T21:40:09.097Z,98563.97
2023-03-12T21:42:36.079Z,98564.84
2023-03-12T21:45:03.692Z,98559.59
2023-03-12T21:47:30.652Z,98548.38
2023-03-12T21:49:58.194Z,98543.13
2023-03-12T21:52:25.156Z,98542.28
2023-03-12T21:54:52.402Z,98531.06
2023-03-12T21:57:19.319Z,98531.97
2023-03-12T21:59:46.586Z,98529.31
2023-03-12T22:02:14.613Z,98525.81
2023-03-12T22:04:41.890Z,98521.44
2023-03-12T22:07:08.849Z,98526.56
2023-03-12T22:09:36.147Z,98533.44
2023-03-12T22:12:03.592Z,98529.09
2023-03-12T22:14:30.845Z,98523.91
2023-03-12T22:16:58.186Z,98530.84
2023-03-12T22:19:25.345Z,98522.19
2023-03-12T22:21:52.544Z,98517.91
2023-03-12T22:24:19.958Z,98515.34
2023-03-12T22:26:46.981Z,98517.03
2023-03-12T22:29:14.213Z,98519.66
2023-03-12T22:31:41.292Z,98510.13
2023-03-12T22:34:09.089Z,98506.66
2023-03-12T22:36:38.640Z,98506.69
2023-03-12T22:39:05.937Z,98506.66
2023-03-12T22:41:33.157Z,98510.09
2023-03-12T22:44:05.946Z,98511.81
2023-03-12T22:46:33.621Z,98523.00
2023-03-12T22:49:02.534Z,98522.09
2023-03-12T22:51:31.774Z,98519.47
2023-03-12T22:53:59.094Z,98511.66
2023-03-12T22:56:26.605Z,98511.59
2023-03-12T22:58:55.465Z,98506.41
2023-03-12T23:01:23.317Z,98505.50
2023-03-12T23:03:51.188Z,98507.19
2023-03-12T23:06:26.388Z,98513.22
2023-03-12T23:08:55.159Z,98516.59
2023-03-12T23:11:25.298Z,98517.44
2023-03-12T23:13:53.525Z,98515.69
2023-03-12T23:16:23.001Z,98519.13
2023-03-12T23:18:50.889Z,98514.78
2023-03-12T23:21:21.825Z,98521.66
2023-03-12T23:23:50.270Z,98518.22
2023-03-12T23:26:21.871Z,98520.81
2023-03-12T23:28:51.179Z,98514.72
2023-03-12T23:31:18.409Z,98516.47
2023-03-12T23:33:45.701Z,98510.44
2023-03-12T23:36:15.387Z,98513.88
2023-03-12T23:38:43.484Z,98513.81
2023-03-12T23:41:19.084Z,98505.13
2023-03-12T23:43:46.333Z,98506.81
2023-03-12T23:46:14.160Z,98519.72
2023-03-12T23:48:41.745Z,98511.91
2023-03-12T23:51:29.637Z,98513.53
2023-03-12T23:53:59.356Z,98511.72
2023-03-12T23:56:30.816Z,98507.34
2023-03-12T23:58:58.011Z,98498.56
